EDT,Max TemperatureF,Mean TemperatureF,Min TemperatureF,Max Dew PointF,MeanDew PointF,Min DewpointF,Max Humidity, Mean Humidity, Min Humidity, Max Sea Level PressureIn, Mean Sea Level PressureIn, Min Sea Level PressureIn, Max VisibilityMiles, Mean VisibilityMiles, Min VisibilityMiles, Max Wind SpeedMPH, Mean Wind SpeedMPH, Max Gust SpeedMPH,PrecipitationIn, CloudCover, Events, WindDirDegrees
2012-8-1,79,72,66,71,68,64,97,89,72,29.93,29.88,29.84,10,8,4,9,1,,0.01,6,Rain,232
2012-8-2,87,78,68,70,68,63,100,79,44,29.90,29.86,29.83,10,6,0,8,2,,0.01,3,Fog,277
2012-8-3,89,79,69,72,70,66,94,73,46,30.09,30.02,29.92,10,8,5,9,4,,0.00,1,,201
2012-8-4,88,80,71,73,71,66,100,79,49,30.21,30.16,30.09,10,8,4,12,3,17,0.00,1,,157
2012-8-5,87,80,73,75,73,68,94,80,66,30.18,30.05,29.94,10,8,0,24,7,34,0.80,6,Fog-Rain-Thunderstorm,170
2012-8-6,82,74,66,72,63,55,94,66,42,30.03,29.99,29.95,10,9,2,16,7,22,0.00,3,Rain,306
2012-8-7,78,70,62,64,60,57,88,69,47,30.01,29.99,29.96,10,10,10,10,4,,0.00,0,,204
2012-8-8,84,75,66,70,67,64,94,79,51,29.99,29.96,29.93,10,10,8,10,2,,0.00,1,,136
2012-8-9,87,78,69,73,70,65,100,82,49,29.97,29.93,29.88,10,6,0,14,3,18,0.00,2,Fog,164
2012-8-10,79,74,69,74,72,66,97,89,79,29.88,29.82,29.75,10,6,0,10,4,17,0.72,5,Fog-Rain-Thunderstorm,154
2012-8-11,84,76,69,73,71,69,100,84,63,29.90,29.84,29.80,10,6,0,16,3,22,0.00,4,Fog-Thunderstorm,159
2012-8-12,84,78,72,70,63,58,93,64,41,29.94,29.90,29.87,10,10,6,8,3,17,0.00,3,,264
2012-8-13,82,73,64,63,60,57,84,62,44,29.99,29.95,29.93,10,10,10,13,6,,0.00,1,,297
2012-8-14,80,72,66,68,65,60,93,79,60,29.97,29.93,29.88,10,10,6,8,2,,0.00,3,,171
2012-8-15,81,74,68,72,69,64,100,88,71,29.90,29.86,29.82,10,8,2,12,4,,0.26,5,Rain-Thunderstorm,93
2012-8-16,82,74,66,66,62,57,96,72,42,29.90,29.87,29.85,10,9,3,15,6,17,0.01,2,,312
2012-8-17,87,74,63,68,63,59,93,71,43,29.88,29.83,29.76,10,9,2,12,5,18,0.21,3,Rain-Thunderstorm,244
2012-8-18,79,70,62,66,60,54,94,75,48,29.94,29.87,29.83,10,9,2,10,6,,0.34,5,Rain-Thunderstorm,344
2012-8-19,73,64,57,59,54,50,84,68,49,29.98,29.95,29.92,10,10,10,10,5,,0.00,3,,326
2012-8-20,77,68,59,61,58,55,87,68,48,29.93,29.89,29.84,10,10,10,7,2,,0.00,3,,309
2012-8-21,80,71,64,63,58,53,88,66,42,30.10,30.01,29.92,10,10,10,10,5,,0.00,2,,317
2012-8-22,82,72,63,63,61,57,94,72,44,30.15,30.11,30.09,10,9,5,8,2,,0.00,1,,228
2012-8-23,84,74,63,65,62,58,93,73,41,30.16,30.13,30.10,10,10,7,10,2,,0.00,1,,234
2012-8-24,84,74,64,64,61,56,94,66,39,30.20,30.15,30.11,10,9,5,8,3,,0.00,0,,11
2012-8-25,82,74,66,70,64,55,100,76,54,30.29,30.25,30.18,10,6,0,9,3,,0.00,2,Fog,88
2012-8-26,79,72,64,63,61,55,94,74,45,30.32,30.27,30.23,10,10,10,9,5,,0.00,2,,101
2012-8-27,80,72,64,72,68,61,93,85,62,30.23,30.08,29.94,10,10,8,10,4,17,0.08,4,Rain,162
2012-8-28,84,77,68,72,66,57,94,72,40,29.94,29.85,29.79,10,9,2,16,6,24,0.02,4,Rain,298
2012-8-29,77,68,60,58,52,46,84,58,36,30.02,29.96,29.89,10,10,10,14,8,25,0.00,0,,339
2012-8-30,81,68,54,55,50,44,86,55,28,30.09,30.05,30.02,10,10,10,10,5,,0.00,0,,290
2012-8-31,91,76,63,58,55,48,78,49,24,30.04,29.97,29.88,10,10,10,12,5,20,0.00,0,,263